Overview Statistics Trail Chart Weather Telemetry Raw packets
 

This is the latest recevied weather packets stored in our database for station/object VY2CRA-4. If no packets are shown the sender has not sent any weather packets the latest 10 day(s).

<< 16 17 18 19 20 21 >>
Time Temp. Humidity Pressure Rain* Wind** Luminosity Snow
1787919757 32.78° C 16% 1015.6 hPa 0 mm - - -
1787916153 28.33° C 33% 1015.8 hPa 0 mm - - -
1787914952 25.56° C 43% 1015.6 hPa 0 mm - - -
1787913752 22.22° C 52% 1015.6 hPa 0 mm - - -
1787912551 21.11° C 51% 1015.7 hPa 0 mm - - -
1787908948 20.56° C 50% 1015.4 hPa 0 mm - - -
1787905345 20.56° C 49% 1015.3 hPa 0 mm - - -
1787900541 21.11° C 47% 1015.5 hPa 0 mm - - -
1787894536 21.67° C 43% 1015.2 hPa 0 mm - - -
1787892135 22.22° C 42% 1015.4 hPa 0 mm - - -
1787890934 22.22° C 41% 1015.2 hPa 0 mm - - -
1787889733 22.78° C 40% 1015.3 hPa 0 mm - - -
1787887331 22.78° C 39% 1015.3 hPa 0 mm - - -
1787882527 23.89° C 37% 1014.8 hPa 0 mm - - -
1787881326 23.89° C 36% 1014.9 hPa 0 mm - - -
1787878924 25° C 34% 1014.9 hPa 0 mm - - -
1787877723 25.56° C 33% 1014.9 hPa 0 mm - - -
1787875322 26.11° C 30% 1014.7 hPa 0 mm - - -
1787874121 26.67° C 29% 1014.6 hPa 0 mm - - -
1787872920 27.22° C 28% 1014.4 hPa 0 mm - - -
1787871719 27.78° C 28% 1014.2 hPa 0 mm - - -
1787870518 28.33° C 28% 1014.2 hPa 0 mm - - -
1787869317 30° C 23% 1013.9 hPa 0 mm - - -
1787868116 31.11° C 18% 1014 hPa 0 mm - - -
1787866915 32.22° C 11% 1014.2 hPa 0 mm - - -

* Rain since midnight (hover to see other rain measurements)
** Current wind speed in m/s (hover to see current wind gust speed)